RCSS/TSA METAR and TAF weather

Enter ICAO airport designator
Station Type Date Time Source
RCSS METAR 2022/07/03 14:00 UTC NOAA

RCSS 031400Z 29005KT 9999 FEW020 BKN030 BKN050 29/26 Q1006 NOSIG RMK A2971


Station Type Date Time Source
RCSS Decoded METAR 2022/07/03 14:00 UTC NOAA

Sungshan / Taipei, Taiwan (RCSS) 25-04N 121-33E
Jul 03, 2022 - 10:00 AM EDT / 2022.07.03 1400 UTC
Wind: from the WNW (290 degrees) at 6 MPH (5 KT):0
Visibility: greater than 7 mile(s):0
Sky conditions: mostly cloudy
Temperature: 84 F (29 C)
Dew Point: 78 F (26 C)
Relative Humidity: 83%
Pressure (altimeter): 29.71 in. Hg (1006 hPa)
ob: RCSS 031400Z 29005KT 9999 FEW020 BKN030 BKN050 29/26 Q1006 NOSIG RMK A2971
cycle: 14

Station Type Date Time Source
RCSS TAF 2022/07/03 12:03 UTC NOAA

TAF RCSS 031100Z 0312/0412 29005KT 9999 FEW015 BKN032 BKN150
BECMG 0403/0405 08005KT
TEMPO 0405/0409 10010KT 4000 TSRA SCT008 FEW012CB BKN015 BKN050

Example: see airport list